createdAt,value
2022-12-23T00:04:06.531Z,97842.89
2022-12-23T00:09:10.189Z,97845.02
2022-12-23T00:14:31.951Z,97847.91
2022-12-23T00:19:35.471Z,97851.70
2022-12-23T00:24:39.067Z,97847.55
2022-12-23T00:29:42.833Z,97852.88
2022-12-23T00:34:46.456Z,97854.20
2022-12-23T00:40:07.714Z,97861.44
2022-12-23T00:45:16.538Z,97864.05
2022-12-23T00:50:20.089Z,97872.20
2022-12-23T00:55:23.743Z,97874.96
2022-12-23T01:00:41.163Z,97877.63
2022-12-23T01:05:44.726Z,97882.19
2022-12-23T01:10:48.333Z,97875.63
2022-12-23T01:15:51.870Z,97864.98
2022-12-23T01:20:55.383Z,97863.76
2022-12-23T01:25:59.440Z,97868.95
2022-12-23T01:31:02.995Z,97867.72
2022-12-23T01:36:06.571Z,97870.89
2022-12-23T01:41:30.109Z,97870.11
2022-12-23T01:46:33.755Z,97879.09
2022-12-23T01:51:37.349Z,97869.88
2022-12-23T01:56:41.903Z,97875.44
2022-12-23T02:02:03.371Z,97877.77
2022-12-23T02:07:24.894Z,97882.96
2022-12-23T02:12:28.455Z,97890.10
2022-12-23T02:17:32.009Z,97902.14
2022-12-23T02:22:36.588Z,97905.80
2022-12-23T02:27:40.774Z,97912.04
2022-12-23T02:32:44.519Z,97906.83
2022-12-23T02:37:48.213Z,97906.12
2022-12-23T02:42:51.736Z,97906.41
2022-12-23T02:47:55.349Z,97909.67
2022-12-23T02:52:58.928Z,97901.83
2022-12-23T02:58:02.548Z,97903.40
2022-12-23T03:03:06.258Z,97901.61
2022-12-23T03:08:09.927Z,97900.52
2022-12-23T03:13:13.758Z,97900.61
2022-12-23T03:18:17.275Z,97907.02
2022-12-23T03:23:20.786Z,97901.10
2022-12-23T03:28:24.301Z,97902.19
2022-12-23T03:33:27.845Z,97889.64
2022-12-23T03:38:31.530Z,97886.06
2022-12-23T03:43:35.131Z,97887.02
2022-12-23T03:48:38.701Z,97892.31
2022-12-23T03:53:42.321Z,97888.95
2022-12-23T03:58:45.907Z,97895.30
2022-12-23T04:03:49.656Z,97898.13
2022-12-23T04:08:53.388Z,97894.05
2022-12-23T04:13:57.180Z,97889.15
2022-12-23T04:19:00.763Z,97880.31
2022-12-23T04:24:04.344Z,97870.09
2022-12-23T04:29:07.881Z,97864.20
2022-12-23T04:34:11.478Z,97856.65
2022-12-23T04:39:15.056Z,97844.04
2022-12-23T04:44:18.600Z,97835.78
2022-12-23T04:49:22.167Z,97842.90
2022-12-23T04:54:25.907Z,97852.42
2022-12-23T04:59:29.583Z,97851.90
2022-12-23T05:04:33.170Z,97846.61
2022-12-23T05:09:36.727Z,97848.80
2022-12-23T05:14:40.439Z,97855.39
2022-12-23T05:19:44.207Z,97856.30
2022-12-23T05:24:47.791Z,97855.20
2022-12-23T05:29:51.353Z,97851.05
2022-12-23T05:34:54.897Z,97860.96
2022-12-23T05:39:58.565Z,97857.25
2022-12-23T05:45:02.441Z,97860.80
2022-12-23T05:50:05.986Z,97855.14
2022-12-23T05:55:09.540Z,97858.52
2022-12-23T06:00:13.163Z,97849.29
2022-12-23T06:05:16.679Z,97846.70
2022-12-23T06:10:20.464Z,97842.95
2022-12-23T06:15:24.057Z,97844.31
2022-12-23T06:20:27.801Z,97842.45
2022-12-23T06:25:31.384Z,97836.86
2022-12-23T06:30:34.962Z,97847.98
2022-12-23T06:35:38.855Z,97846.41
2022-12-23T06:40:42.440Z,97846.21
2022-12-23T06:45:46.159Z,97846.81
2022-12-23T06:50:49.807Z,97853.09
2022-12-23T06:55:53.387Z,97849.36
2022-12-23T07:00:58.175Z,97849.13
2022-12-23T07:06:01.805Z,97851.26
2022-12-23T07:11:05.356Z,97850.64
2022-12-23T07:16:09.057Z,97852.81
2022-12-23T07:21:21.201Z,97856.27
2022-12-23T07:26:30.391Z,97853.77
2022-12-23T07:31:34.880Z,97859.48
2022-12-23T07:36:40.903Z,97863.58
2022-12-23T07:41:44.511Z,97862.29
2022-12-23T07:46:48.248Z,97860.04
2022-12-23T07:51:51.939Z,97861.84
2022-12-23T07:56:56.180Z,97862.41
2022-12-23T08:01:59.849Z,97862.50
2022-12-23T08:07:03.546Z,97857.86
2022-12-23T08:12:07.142Z,97851.53
2022-12-23T08:17:11.045Z,97848.15
2022-12-23T08:22:14.813Z,97843.44
2022-12-23T08:27:18.451Z,97843.52
2022-12-23T08:32:21.973Z,97834.36
2022-12-23T08:37:25.491Z,97837.90
2022-12-23T08:42:29.107Z,97833.80
2022-12-23T08:47:32.718Z,97828.80
2022-12-23T08:52:36.283Z,97829.91
2022-12-23T08:57:40.010Z,97821.71
2022-12-23T09:02:43.832Z,97817.02
2022-12-23T09:07:47.745Z,97805.66
2022-12-23T09:12:51.336Z,97802.55
2022-12-23T09:17:54.909Z,97795.20
2022-12-23T09:22:58.532Z,97790.77
2022-12-23T09:28:02.166Z,97783.95
2022-12-23T09:33:05.843Z,97775.66
2022-12-23T09:38:09.406Z,97770.49
2022-12-23T09:43:12.938Z,97764.20
2022-12-23T09:48:16.659Z,97757.64
2022-12-23T09:53:20.483Z,97753.81
2022-12-23T09:58:24.130Z,97751.35
2022-12-23T10:03:27.837Z,97745.34
2022-12-23T10:08:31.649Z,97729.58
2022-12-23T10:13:35.996Z,97723.41
2022-12-23T10:18:39.554Z,97715.65
2022-12-23T10:23:43.155Z,97720.08
2022-12-23T10:28:46.676Z,97730.98
2022-12-23T10:33:50.242Z,97733.02
2022-12-23T10:45:12.063Z,97731.22
2022-12-23T10:50:15.687Z,97725.47
2022-12-23T10:55:19.296Z,97722.88
2022-12-23T11:00:22.949Z,97719.52
2022-12-23T11:05:26.562Z,97714.09
2022-12-23T11:10:32.830Z,97714.34
2022-12-23T11:15:36.430Z,97714.58
2022-12-23T11:20:40.539Z,97718.31
2022-12-23T11:25:47.081Z,97717.36
2022-12-23T11:30:55.942Z,97719.95
2022-12-23T11:36:00.044Z,97722.73
2022-12-23T11:41:03.697Z,97726.71
2022-12-23T11:46:07.380Z,97727.30
2022-12-23T11:51:11.102Z,97726.20
2022-12-23T11:56:14.714Z,97721.34
2022-12-23T12:01:18.394Z,97721.55
2022-12-23T12:06:22.038Z,97721.08
2022-12-23T12:11:25.679Z,97722.59
2022-12-23T12:16:29.426Z,97723.04
2022-12-23T12:21:33.040Z,97720.02
2022-12-23T12:26:36.687Z,97726.09
2022-12-23T12:31:40.331Z,97727.81
2022-12-23T12:36:44.087Z,97722.27
2022-12-23T12:41:47.831Z,97716.63
2022-12-23T12:46:51.420Z,97719.05
2022-12-23T12:51:55.006Z,97724.44
2022-12-23T12:56:58.568Z,97725.64
2022-12-23T13:02:02.309Z,97726.30
2022-12-23T13:07:05.893Z,97733.95
2022-12-23T13:12:09.486Z,97741.61
2022-12-23T13:17:13.067Z,97742.38
2022-12-23T13:22:16.762Z,97747.94
2022-12-23T13:27:20.515Z,97748.41
2022-12-23T13:32:24.200Z,97752.88
2022-12-23T13:37:27.795Z,97758.42
2022-12-23T13:42:31.364Z,97763.39
2022-12-23T13:47:34.937Z,97766.84
2022-12-23T13:52:38.629Z,97770.38
2022-12-23T13:57:42.238Z,97775.23
2022-12-23T14:02:45.996Z,97775.31
2022-12-23T14:07:49.614Z,97777.63
2022-12-23T14:12:53.160Z,97773.30
2022-12-23T14:18:00.995Z,97779.77
2022-12-23T14:23:07.802Z,97783.70
2022-12-23T14:28:11.412Z,97781.34
2022-12-23T14:33:15.033Z,97786.20
2022-12-23T14:38:18.681Z,97780.68
2022-12-23T14:43:22.447Z,97783.88
2022-12-23T14:48:26.602Z,97784.27
2022-12-23T14:53:30.248Z,97778.64
2022-12-23T14:58:33.942Z,97786.43
2022-12-23T15:03:37.510Z,97785.44
2022-12-23T15:08:41.157Z,97777.15
2022-12-23T15:13:44.734Z,97786.45
2022-12-23T15:18:48.317Z,97795.81
2022-12-23T15:23:52.047Z,97792.77
2022-12-23T15:28:56.166Z,97793.74
2022-12-23T15:34:03.520Z,97803.19
2022-12-23T15:39:08.460Z,97799.80
2022-12-23T15:44:12.003Z,97797.94
2022-12-23T15:49:15.657Z,97798.82
2022-12-23T15:54:19.368Z,97791.70
2022-12-23T15:59:22.942Z,97786.69
2022-12-23T16:04:26.659Z,97792.52
2022-12-23T16:09:30.490Z,97791.42
2022-12-23T16:14:34.915Z,97805.89
2022-12-23T16:19:38.634Z,97803.95
2022-12-23T16:24:42.298Z,97791.72
2022-12-23T16:29:45.931Z,97782.96
2022-12-23T16:34:49.533Z,97776.92
2022-12-23T16:39:53.078Z,97782.90
2022-12-23T16:44:56.749Z,97782.77
2022-12-23T16:50:00.354Z,97776.29
2022-12-23T16:55:04.034Z,97771.95
2022-12-23T17:00:07.770Z,97775.71
2022-12-23T17:05:11.327Z,97774.67
2022-12-23T17:10:14.851Z,97768.13
2022-12-23T17:15:18.530Z,97767.61
2022-12-23T17:20:22.113Z,97766.03
2022-12-23T17:25:26.768Z,97775.40
2022-12-23T17:30:31.023Z,97778.44
2022-12-23T17:35:34.587Z,97787.90
2022-12-23T17:40:38.762Z,97792.45
2022-12-23T17:45:42.527Z,97799.11
2022-12-23T17:50:46.185Z,97807.59
2022-12-23T17:55:50.021Z,97813.11
2022-12-23T18:00:53.681Z,97809.26
2022-12-23T18:06:01.829Z,97811.09
2022-12-23T18:11:05.978Z,97798.62
2022-12-23T18:16:13.294Z,97806.78
2022-12-23T18:21:17.030Z,97808.34
2022-12-23T18:26:20.605Z,97811.69
2022-12-23T18:31:24.419Z,97810.64
2022-12-23T18:36:28.331Z,97811.94
2022-12-23T18:41:32.098Z,97811.41
2022-12-23T18:46:35.708Z,97810.90
2022-12-23T18:51:39.366Z,97813.91
2022-12-23T18:56:42.976Z,97813.95
2022-12-23T19:01:46.597Z,97809.36
2022-12-23T19:06:50.177Z,97807.53
2022-12-23T19:11:53.726Z,97808.09
2022-12-23T19:16:59.956Z,97809.98
2022-12-23T19:22:03.585Z,97806.60
2022-12-23T19:27:07.178Z,97809.89
2022-12-23T19:32:10.698Z,97807.09
2022-12-23T19:37:14.305Z,97809.13
2022-12-23T19:42:17.954Z,97807.52
2022-12-23T19:47:21.519Z,97804.86
2022-12-23T19:52:25.075Z,97802.46
2022-12-23T19:57:28.615Z,97808.08
2022-12-23T20:02:32.249Z,97815.06
2022-12-23T20:07:35.935Z,97813.46
2022-12-23T20:12:39.463Z,97799.34
2022-12-23T20:17:42.985Z,97789.23
2022-12-23T20:22:46.616Z,97774.44
2022-12-23T20:27:50.249Z,97761.17
2022-12-23T20:32:55.422Z,97766.16
2022-12-23T20:37:59.283Z,97750.89
2022-12-23T20:43:03.994Z,97746.94
2022-12-23T20:48:07.519Z,97741.77
2022-12-23T20:53:11.450Z,97741.61
2022-12-23T20:58:32.698Z,97742.71
2022-12-23T21:03:36.292Z,97742.09
2022-12-23T21:08:40.326Z,97740.44
2022-12-23T21:13:43.930Z,97738.77
2022-12-23T21:18:48.801Z,97737.29
2022-12-23T21:23:52.378Z,97738.04
2022-12-23T21:28:56.124Z,97737.64
2022-12-23T21:34:00.345Z,97730.16
2022-12-23T21:39:03.932Z,97722.81
2022-12-23T21:44:07.479Z,97731.82
2022-12-23T21:49:11.299Z,97734.55
2022-12-23T21:54:15.009Z,97732.41
2022-12-23T21:59:18.522Z,97735.85
2022-12-23T22:04:22.094Z,97737.23
2022-12-23T22:09:25.653Z,97735.77
2022-12-23T22:14:29.174Z,97734.89
2022-12-23T22:19:32.939Z,97723.20
2022-12-23T22:24:36.496Z,97715.92
2022-12-23T22:29:41.441Z,97712.69
2022-12-23T22:34:45.626Z,97713.67
2022-12-23T22:39:49.679Z,97710.55
2022-12-23T22:44:53.356Z,97710.48
2022-12-23T22:49:56.959Z,97706.14
2022-12-23T22:55:00.531Z,97706.38
2022-12-23T23:00:11.654Z,97699.63
2022-12-23T23:05:16.051Z,97700.48
2022-12-23T23:10:21.614Z,97703.55
2022-12-23T23:15:25.241Z,97704.55
2022-12-23T23:20:28.805Z,97707.61
2022-12-23T23:25:32.440Z,97690.60
2022-12-23T23:30:36.020Z,97693.39
2022-12-23T23:35:39.686Z,97683.11
2022-12-23T23:40:43.231Z,97673.96
2022-12-23T23:45:46.801Z,97668.12
2022-12-23T23:50:50.425Z,97661.47
2022-12-23T23:55:53.959Z,97650.52
